Weather at Los Angeles International Airport

Public forecast

Using degrees Fahrenheit for public forecast. Weather courtesy of forecast.io.

Current aviation weather report (METAR) for Los Angeles International Airport

Report is more than 6 hours old.

Retrieved 2022/09/17 18:53 UTC (18 days ago):

KLAX 171853Z 11005KT 10SM FEW027 BKN036 24/15 A2985 RMK AO2 SLP106 T02390150

Aviation forecast (TAF) for Los Angeles International Airport

Forecast is more than 12 hours old.

Retrieved 2022/09/17 18:42 UTC (18 days ago):

TAF KLAX 171741Z 1718/1824 15006KT P6SM SCT020 BKN030 FM172100 25012KT P6SM SCT030 FM180300 26006KT P6SM OVC015 FM181200 13006KT 5SM -DZ SCT015 OVC025 FM181800 24011KT P6SM BKN035